Washta, Iowa
Current Conditions -  °F | °C
As of 3:15 AM on Friday 19 Dec 2014 (Local Time) from KCKP Reporting Station
Overcast Overcast  
Wind Chill: 23°   Ceiling: 1200
Heat Index: 29°   Visibility: 7mi
Dew Point: 28°   Wind: 6mph
Humidity: 97%   Direction: 180°S
Pressure: 30.21"   Gusts: NA
Location:  42.58°N, 95.72°W
Report Text: KCKP 190915Z AUTO 18005KT 7SM OVC012 M02/M02 A3021 RMK AO2 T10161020
Loading
Personal Weather Stations






























Interactive Weather Map New forecast layout! Learn more

10-Day Weather Forecast

Advertisements
Track Severe Weather on mobile